createdAt,value
2019-01-16T00:02:28.582Z,100145.84
2019-01-16T00:05:17.127Z,100139.16
2019-01-16T00:08:05.504Z,100146.60
2019-01-16T00:10:51.763Z,100141.68
2019-01-16T00:13:38.894Z,100131.41
2019-01-16T00:16:30.127Z,100138.97
2019-01-16T00:19:17.939Z,100143.71
2019-01-16T00:21:59.440Z,100140.62
2019-01-16T00:24:46.770Z,100139.66
2019-01-16T00:27:33.764Z,100141.75
2019-01-16T00:30:22.624Z,100150.14
2019-01-16T00:33:00.512Z,100138.53
2019-01-16T00:35:47.256Z,100142.67
2019-01-16T00:38:47.068Z,100150.48
2019-01-16T00:41:45.302Z,100143.13
2019-01-16T00:44:32.523Z,100148.84
2019-01-16T00:47:19.785Z,100148.52
2019-01-16T00:50:11.205Z,100149.50
2019-01-16T00:53:03.630Z,100141.44
2019-01-16T00:55:47.104Z,100150.10
2019-01-16T00:58:25.979Z,100155.91
2019-01-16T01:01:17.371Z,100157.83
2019-01-16T01:04:04.523Z,100155.00
2019-01-16T01:06:48.385Z,100151.13
2019-01-16T01:09:36.410Z,100162.74
2019-01-16T01:12:23.761Z,100148.17
2019-01-16T01:15:07.735Z,100150.52
2019-01-16T01:17:55.272Z,100150.98
2019-01-16T01:20:42.726Z,100145.83
2019-01-16T01:23:23.369Z,100153.70
2019-01-16T01:26:10.551Z,100155.25
2019-01-16T01:29:00.764Z,100145.83
2019-01-16T01:31:37.332Z,100146.06
2019-01-16T01:34:23.566Z,100145.95
2019-01-16T01:37:10.915Z,100147.38
2019-01-16T01:39:54.026Z,100142.72
2019-01-16T01:42:35.837Z,100152.58
2019-01-16T01:45:23.448Z,100146.66
2019-01-16T01:48:08.855Z,100146.48
2019-01-16T01:51:00.571Z,100138.30
2019-01-16T01:53:48.161Z,100147.80
2019-01-16T01:56:42.392Z,100149.63
2019-01-16T01:59:43.209Z,100135.21
2019-01-16T02:02:24.238Z,100155.73
2019-01-16T02:05:18.723Z,100160.51
2019-01-16T02:08:11.855Z,100155.08
2019-01-16T02:10:51.460Z,100154.74
2019-01-16T02:13:32.255Z,100150.16
2019-01-16T02:16:21.520Z,100152.37
2019-01-16T02:19:00.499Z,100151.98
2019-01-16T02:21:47.561Z,100147.34
2019-01-16T02:24:36.115Z,100146.94
2019-01-16T02:27:31.071Z,100140.84
2019-01-16T02:30:16.473Z,100136.17
2019-01-16T02:33:03.502Z,100133.77
2019-01-16T02:35:47.395Z,100129.57
2019-01-16T02:38:35.059Z,100121.95
2019-01-16T02:41:19.784Z,100122.22
2019-01-16T02:44:02.372Z,100127.74
2019-01-16T02:46:57.828Z,100123.40
2019-01-16T02:49:44.995Z,100116.13
2019-01-16T02:52:31.871Z,100114.11
2019-01-16T02:55:18.471Z,100112.38
2019-01-16T02:58:02.607Z,100108.25
2019-01-16T03:00:43.025Z,100103.20
2019-01-16T03:03:31.347Z,100108.33
2019-01-16T03:06:11.300Z,100109.05
2019-01-16T03:08:48.800Z,100101.16
2019-01-16T03:11:36.191Z,100114.14
2019-01-16T03:14:26.637Z,100108.66
2019-01-16T03:17:14.055Z,100108.56
2019-01-16T03:19:56.278Z,100095.98
2019-01-16T03:22:50.434Z,100093.15
2019-01-16T03:25:54.256Z,100095.45
2019-01-16T03:28:42.095Z,100091.49
2019-01-16T03:31:21.889Z,100089.66
2019-01-16T03:34:00.817Z,100087.33
2019-01-16T03:36:52.432Z,100086.66
2019-01-16T03:39:37.403Z,100087.77
2019-01-16T03:42:25.011Z,100080.13
2019-01-16T03:45:13.212Z,100079.60
2019-01-16T03:48:05.338Z,100071.44
2019-01-16T03:51:04.706Z,100072.81
2019-01-16T03:53:47.216Z,100087.94
2019-01-16T03:56:44.926Z,100079.43
2019-01-16T03:59:28.949Z,100079.95
2019-01-16T04:02:16.875Z,100054.99
2019-01-16T04:04:57.511Z,100055.55
2019-01-16T04:07:38.187Z,100057.13
2019-01-16T04:10:31.598Z,100056.30
2019-01-16T04:13:32.725Z,100053.83
2019-01-16T04:16:19.818Z,100050.68
2019-01-16T04:19:00.125Z,100050.27
2019-01-16T04:21:42.467Z,100046.74
2019-01-16T04:24:21.923Z,100030.36
2019-01-16T04:27:22.642Z,100028.31
2019-01-16T04:30:20.571Z,100041.50
2019-01-16T04:33:24.526Z,100033.30
2019-01-16T04:36:15.420Z,100036.83
2019-01-16T04:39:06.499Z,100026.48
2019-01-16T04:41:56.593Z,100038.58
2019-01-16T04:44:42.128Z,100041.97
2019-01-16T04:47:30.978Z,100036.77
2019-01-16T04:50:24.572Z,100024.44
2019-01-16T04:53:13.177Z,100025.69
2019-01-16T04:56:07.988Z,100017.67
2019-01-16T04:58:58.628Z,100019.36
2019-01-16T05:01:45.577Z,100009.59
2019-01-16T05:04:37.235Z,100005.55
2019-01-16T05:07:22.932Z,99995.36
2019-01-16T05:10:07.504Z,99993.73
2019-01-16T05:12:53.121Z,99998.98
2019-01-16T05:15:40.707Z,99995.95
2019-01-16T05:18:22.452Z,99987.39
2019-01-16T05:21:25.973Z,99989.96
2019-01-16T05:24:19.285Z,99977.16
2019-01-16T05:26:57.803Z,99978.09
2019-01-16T05:29:39.752Z,99984.02
2019-01-16T05:32:28.225Z,99974.47
2019-01-16T05:35:15.245Z,99980.30
2019-01-16T05:38:05.552Z,99967.45
2019-01-16T05:40:57.593Z,99961.81
2019-01-16T05:43:58.072Z,99969.75
2019-01-16T05:46:41.329Z,99964.81
2019-01-16T05:49:33.031Z,99964.75
2019-01-16T05:52:13.865Z,99965.60
2019-01-16T05:55:03.930Z,99964.07
2019-01-16T05:57:55.278Z,99965.63
2019-01-16T06:00:35.286Z,99925.13
2019-01-16T06:03:29.846Z,99968.10
2019-01-16T06:06:21.950Z,99955.97
2019-01-16T06:09:02.207Z,99962.37
2019-01-16T06:11:50.663Z,99961.01
2019-01-16T06:14:32.348Z,99957.06
2019-01-16T06:17:12.753Z,99966.54
2019-01-16T06:19:54.166Z,99954.22
2019-01-16T06:22:31.698Z,99954.73
2019-01-16T06:25:10.261Z,99950.10
2019-01-16T06:27:57.440Z,99945.78
2019-01-16T06:30:44.876Z,99947.16
2019-01-16T06:33:32.333Z,99942.38
2019-01-16T06:36:23.758Z,99944.00
2019-01-16T06:39:10.979Z,99936.66
2019-01-16T06:42:02.738Z,99942.29
2019-01-16T06:44:48.344Z,99944.53
2019-01-16T06:47:34.060Z,99942.59
2019-01-16T06:50:37.337Z,99947.95
2019-01-16T06:53:18.932Z,99952.50
2019-01-16T06:56:16.807Z,99943.79
2019-01-16T06:59:05.465Z,99946.63
2019-01-16T07:02:00.747Z,99937.28
2019-01-16T07:05:01.907Z,99934.66
2019-01-16T07:07:50.447Z,99939.47
2019-01-16T07:10:33.004Z,99939.75
2019-01-16T07:13:14.648Z,99947.94
2019-01-16T07:16:02.346Z,99949.47
2019-01-16T07:18:49.615Z,99926.25
2019-01-16T07:21:37.016Z,99945.72
2019-01-16T07:24:20.152Z,99946.94
2019-01-16T07:27:07.328Z,99939.22
2019-01-16T07:29:47.499Z,99935.53
2019-01-16T07:32:54.589Z,99943.72
2019-01-16T07:36:01.347Z,99945.19
2019-01-16T07:38:52.716Z,99951.38
2019-01-16T07:41:40.081Z,99946.13
2019-01-16T07:44:40.697Z,99949.43
2019-01-16T07:47:22.699Z,99949.43
2019-01-16T07:50:17.383Z,99951.12
2019-01-16T07:53:08.505Z,99949.20
2019-01-16T07:55:56.099Z,99960.47
2019-01-16T07:58:35.889Z,99960.78
2019-01-16T08:01:16.285Z,99961.87
2019-01-16T08:04:03.634Z,99962.50
2019-01-16T08:06:58.492Z,99961.27
2019-01-16T08:09:49.195Z,99954.70
2019-01-16T08:12:36.312Z,99963.05
2019-01-16T08:15:29.855Z,99959.64
2019-01-16T08:18:09.575Z,99956.14
2019-01-16T08:20:56.914Z,99957.23
2019-01-16T08:23:42.298Z,99940.26
2019-01-16T08:26:25.496Z,99952.16
2019-01-16T08:29:03.897Z,99952.08
2019-01-16T08:31:45.997Z,99945.88
2019-01-16T08:34:38.789Z,99945.52
2019-01-16T08:37:17.154Z,99948.28
2019-01-16T08:40:08.236Z,99946.91
2019-01-16T08:42:55.257Z,99943.81
2019-01-16T08:45:44.102Z,99943.42
2019-01-16T08:48:29.342Z,99945.44
2019-01-16T08:51:23.746Z,99945.11
2019-01-16T08:54:30.314Z,99950.63
2019-01-16T08:57:14.549Z,99943.81
2019-01-16T09:00:01.624Z,99943.27
2019-01-16T09:02:49.147Z,99941.88
2019-01-16T09:05:36.248Z,99944.57
2019-01-16T09:08:23.041Z,99947.36
2019-01-16T09:11:10.087Z,99942.72
2019-01-16T09:14:06.321Z,99940.63
2019-01-16T09:16:46.536Z,99941.73
2019-01-16T09:19:33.885Z,99940.09
2019-01-16T09:22:22.826Z,99937.32
2019-01-16T09:25:10.135Z,99941.63
2019-01-16T09:27:50.924Z,99938.09
2019-01-16T09:30:54.834Z,99940.42
2019-01-16T09:33:44.000Z,99939.95
2019-01-16T09:36:30.935Z,99935.91
2019-01-16T09:39:22.640Z,99934.30
2019-01-16T09:42:02.171Z,99936.08
2019-01-16T09:44:53.847Z,99928.80
2019-01-16T09:47:33.180Z,99932.22
2019-01-16T09:50:20.709Z,99918.53
2019-01-16T09:53:15.045Z,99923.02
2019-01-16T09:55:57.459Z,99913.66
2019-01-16T09:58:50.663Z,99921.07
2019-01-16T10:01:37.939Z,99912.34
2019-01-16T10:04:25.536Z,99919.83
2019-01-16T10:07:10.820Z,99908.56
2019-01-16T10:10:03.575Z,99914.53
2019-01-16T10:12:50.821Z,99909.34
2019-01-16T10:15:34.996Z,99908.73
2019-01-16T10:18:26.549Z,99904.48
2019-01-16T10:21:15.444Z,99905.80
2019-01-16T10:24:03.035Z,99901.68
2019-01-16T10:26:46.020Z,99897.58
2019-01-16T10:29:24.465Z,99892.20
2019-01-16T10:32:16.099Z,99881.81
2019-01-16T10:35:00.730Z,99875.15
2019-01-16T10:37:58.387Z,99879.80
2019-01-16T10:40:38.212Z,99869.83
2019-01-16T10:43:25.985Z,99871.84
2019-01-16T10:46:23.471Z,99854.13
2019-01-16T10:49:10.837Z,99864.70
2019-01-16T10:52:17.647Z,99850.25
2019-01-16T10:55:13.323Z,99841.34
2019-01-16T10:57:52.999Z,99843.43
2019-01-16T11:00:40.512Z,99843.01
2019-01-16T11:03:27.616Z,99838.10
2019-01-16T11:06:31.603Z,99835.89
2019-01-16T11:09:13.074Z,99827.78
2019-01-16T11:12:01.648Z,99828.25
2019-01-16T11:14:48.677Z,99816.42
2019-01-16T11:17:29.578Z,99818.03
2019-01-16T11:20:19.441Z,99810.61
2019-01-16T11:23:10.397Z,99808.16
2019-01-16T11:25:49.121Z,99800.65
2019-01-16T11:28:43.692Z,99796.70
2019-01-16T11:31:38.244Z,99799.35
2019-01-16T11:34:15.321Z,99795.56
2019-01-16T11:37:14.912Z,99785.55
2019-01-16T11:40:09.311Z,99781.25
2019-01-16T11:42:56.588Z,99777.58
2019-01-16T11:45:43.640Z,99787.94
2019-01-16T11:48:42.639Z,99779.45
2019-01-16T11:51:33.630Z,99770.56
2019-01-16T11:54:35.103Z,99771.11
2019-01-16T11:57:37.053Z,99764.60
2019-01-16T12:00:15.946Z,99753.53
2019-01-16T12:03:03.401Z,99751.99
2019-01-16T12:05:51.759Z,99742.80
2019-01-16T12:08:46.402Z,99743.76
2019-01-16T12:11:25.590Z,99745.55
2019-01-16T12:14:23.393Z,99744.18
2019-01-16T12:17:12.413Z,99743.47
2019-01-16T12:19:59.164Z,99735.28
2019-01-16T12:22:42.598Z,99725.86
2019-01-16T12:25:36.178Z,99727.22
2019-01-16T12:28:36.460Z,99734.39
2019-01-16T12:31:15.320Z,99735.94
2019-01-16T12:33:55.603Z,99699.36
2019-01-16T12:36:46.473Z,99732.83
2019-01-16T12:39:38.353Z,99732.11
2019-01-16T12:42:25.770Z,99729.66
2019-01-16T12:45:17.384Z,99723.39
2019-01-16T12:48:04.570Z,99722.74
2019-01-16T12:50:45.382Z,99719.34
2019-01-16T12:53:22.802Z,99711.70
2019-01-16T12:56:26.674Z,99699.94
2019-01-16T12:59:27.108Z,99689.73
2019-01-16T13:02:15.526Z,99694.79
2019-01-16T13:04:57.782Z,99695.53
2019-01-16T13:07:46.586Z,99691.98
2019-01-16T13:10:34.146Z,99690.99
2019-01-16T13:13:35.156Z,99692.55
2019-01-16T13:16:14.969Z,99677.27
2019-01-16T13:19:09.292Z,99675.45
2019-01-16T13:21:57.275Z,99675.13
2019-01-16T13:24:42.530Z,99673.67
2019-01-16T13:27:36.475Z,99662.62
2019-01-16T13:30:32.486Z,99658.70
2019-01-16T13:33:30.191Z,99659.47
2019-01-16T13:36:24.046Z,99656.95
2019-01-16T13:39:11.044Z,99654.94
2019-01-16T13:41:52.277Z,99657.29
2019-01-16T13:44:46.452Z,99649.49
2019-01-16T13:47:32.461Z,99649.79
2019-01-16T13:50:19.783Z,99651.82
2019-01-16T13:53:03.140Z,99640.50
2019-01-16T13:56:10.211Z,99645.40
2019-01-16T13:58:53.227Z,99628.37
2019-01-16T14:01:31.780Z,99644.68
2019-01-16T14:04:10.430Z,99645.45
2019-01-16T14:06:48.252Z,99638.12
2019-01-16T14:09:28.219Z,99631.91
2019-01-16T14:12:16.910Z,99629.11
2019-01-16T14:15:03.858Z,99632.80
2019-01-16T14:18:07.863Z,99618.13
2019-01-16T14:20:55.143Z,99623.50
2019-01-16T14:23:34.733Z,99617.29
2019-01-16T14:26:32.514Z,99614.07
2019-01-16T14:29:24.786Z,99619.86
2019-01-16T14:32:18.861Z,99619.94
2019-01-16T14:35:06.538Z,99614.91
2019-01-16T14:37:59.379Z,99609.91
2019-01-16T14:40:44.325Z,99613.55
2019-01-16T14:43:39.281Z,99608.59
2019-01-16T14:46:46.205Z,99602.03
2019-01-16T14:49:26.755Z,99593.02
2019-01-16T14:52:13.727Z,99592.25
2019-01-16T14:55:06.000Z,99596.73
2019-01-16T14:57:51.082Z,99594.42
2019-01-16T15:00:50.000Z,99606.80
2019-01-16T15:03:56.977Z,99599.00
2019-01-16T15:06:35.361Z,99592.69
2019-01-16T15:09:27.144Z,99598.47
2019-01-16T15:12:03.311Z,99602.75
2019-01-16T15:14:54.666Z,99583.21
2019-01-16T15:18:01.428Z,99586.42
2019-01-16T15:20:47.758Z,99588.20
2019-01-16T15:23:25.221Z,99584.91
2019-01-16T15:26:04.218Z,99578.83
2019-01-16T15:28:45.235Z,99581.65
2019-01-16T15:31:33.908Z,99585.31
2019-01-16T15:34:18.431Z,99595.09
2019-01-16T15:37:06.171Z,99598.13
2019-01-16T15:39:53.500Z,99593.31
2019-01-16T15:42:46.115Z,99591.33
2019-01-16T15:45:38.528Z,99577.52
2019-01-16T15:48:32.475Z,99564.14
2019-01-16T15:51:19.763Z,99554.25
2019-01-16T15:53:59.060Z,99555.36
2019-01-16T15:56:43.367Z,99561.95
2019-01-16T15:59:25.162Z,99567.20
2019-01-16T16:02:11.780Z,99564.44
2019-01-16T16:05:00.027Z,99564.44
2019-01-16T16:07:48.955Z,99564.67
2019-01-16T16:10:29.113Z,99581.00
2019-01-16T16:13:16.207Z,99544.47
2019-01-16T16:15:55.976Z,99513.38
2019-01-16T16:18:47.385Z,99506.09
2019-01-16T16:21:35.615Z,99524.67
2019-01-16T16:24:13.704Z,99528.03
2019-01-16T16:26:57.021Z,99513.55
2019-01-16T16:29:57.775Z,99519.20
2019-01-16T16:32:43.139Z,99528.03
2019-01-16T16:35:22.598Z,99533.41
2019-01-16T16:38:23.717Z,99521.41
2019-01-16T16:41:12.612Z,99527.33
2019-01-16T16:43:54.544Z,99528.03
2019-01-16T16:46:43.556Z,99525.34
2019-01-16T16:49:22.715Z,99522.34
2019-01-16T16:52:27.046Z,99508.78
2019-01-16T16:55:10.562Z,99508.84
2019-01-16T16:57:53.913Z,99503.02
2019-01-16T17:00:58.318Z,99508.07
2019-01-16T17:03:49.795Z,99500.31
2019-01-16T17:06:32.900Z,99516.03
2019-01-16T17:09:18.727Z,99527.75
2019-01-16T17:12:19.788Z,99512.73
2019-01-16T17:15:20.448Z,99515.88
2019-01-16T17:18:10.705Z,99505.56
2019-01-16T17:20:58.113Z,99489.16
2019-01-16T17:23:52.509Z,99491.70
2019-01-16T17:26:35.088Z,99488.14
2019-01-16T17:29:21.298Z,99488.06
2019-01-16T17:32:08.835Z,99487.83
2019-01-16T17:34:52.641Z,99486.22
2019-01-16T17:37:40.362Z,99481.22
2019-01-16T17:40:20.732Z,99479.51
2019-01-16T17:43:09.588Z,99473.36
2019-01-16T17:45:56.937Z,99468.74
2019-01-16T17:48:44.734Z,99465.05
2019-01-16T17:51:30.033Z,99461.18
2019-01-16T17:54:18.171Z,99459.34
2019-01-16T17:57:06.942Z,99458.97
2019-01-16T17:59:45.462Z,99447.19
2019-01-16T18:02:29.671Z,99446.27
2019-01-16T18:05:20.967Z,99425.92
2019-01-16T18:08:18.861Z,99414.54
2019-01-16T18:11:06.099Z,99422.16
2019-01-16T18:13:53.481Z,99421.92
2019-01-16T18:16:40.615Z,99425.45
2019-01-16T18:19:22.481Z,99417.29
2019-01-16T18:22:11.186Z,99408.06
2019-01-16T18:24:58.537Z,99415.30
2019-01-16T18:27:45.809Z,99409.30
2019-01-16T18:30:44.179Z,99408.59
2019-01-16T18:33:41.620Z,99409.53
2019-01-16T18:36:28.721Z,99402.91
2019-01-16T18:39:22.186Z,99399.83
2019-01-16T18:42:11.857Z,99395.58
2019-01-16T18:44:54.242Z,99388.36
2019-01-16T18:47:55.046Z,99379.72
2019-01-16T18:50:43.875Z,99368.73
2019-01-16T18:53:34.060Z,99365.81
2019-01-16T18:56:15.903Z,99373.97
2019-01-16T18:59:04.474Z,99367.73
2019-01-16T19:01:45.064Z,99364.71
2019-01-16T19:04:32.630Z,99366.89
2019-01-16T19:07:24.235Z,99367.81
2019-01-16T19:10:25.449Z,99360.95
2019-01-16T19:13:13.936Z,99363.88
2019-01-16T19:16:06.116Z,99368.43
2019-01-16T19:18:53.443Z,99361.50
2019-01-16T19:21:40.761Z,99351.73
2019-01-16T19:24:24.190Z,99361.41
2019-01-16T19:27:12.976Z,99358.88
2019-01-16T19:30:00.486Z,99360.34
2019-01-16T19:32:54.643Z,99363.03
2019-01-16T19:35:43.244Z,99357.64
2019-01-16T19:38:24.280Z,99355.33
2019-01-16T19:41:11.682Z,99340.55
2019-01-16T19:43:58.836Z,99356.87
2019-01-16T19:46:44.286Z,99366.02
2019-01-16T19:49:29.086Z,99353.04
2019-01-16T19:52:08.438Z,99343.27
2019-01-16T19:54:55.492Z,99336.11
2019-01-16T19:57:34.967Z,99345.72
2019-01-16T20:00:16.212Z,99339.94
2019-01-16T20:03:03.794Z,99327.33
2019-01-16T20:05:58.214Z,99324.65
2019-01-16T20:08:45.470Z,99326.70
2019-01-16T20:11:37.239Z,99330.70
2019-01-16T20:14:35.287Z,99319.31
2019-01-16T20:17:22.614Z,99315.80
2019-01-16T20:20:26.462Z,99309.54
2019-01-16T20:23:21.221Z,99307.55
2019-01-16T20:26:08.837Z,99306.95
2019-01-16T20:28:56.467Z,99300.61
2019-01-16T20:31:46.897Z,99297.25
2019-01-16T20:34:30.238Z,99289.23
2019-01-16T20:37:20.474Z,99274.85
2019-01-16T20:40:02.034Z,99270.69
2019-01-16T20:42:50.508Z,99264.31
2019-01-16T20:45:38.064Z,99259.98
2019-01-16T20:48:23.804Z,99260.63
2019-01-16T20:51:18.213Z,99251.06
2019-01-16T20:54:08.188Z,99241.07
2019-01-16T20:56:56.771Z,99239.89
2019-01-16T20:59:48.501Z,99230.91
2019-01-16T21:02:49.063Z,99228.89
2019-01-16T21:05:27.978Z,99235.77
2019-01-16T21:08:15.926Z,99247.61
2019-01-16T21:11:03.165Z,99245.77
2019-01-16T21:13:41.626Z,99234.06
2019-01-16T21:16:29.524Z,99217.28
2019-01-16T21:19:10.277Z,99215.58
2019-01-16T21:21:58.036Z,99212.59
2019-01-16T21:24:56.487Z,99210.55
2019-01-16T21:27:47.884Z,99198.81
2019-01-16T21:30:35.306Z,99195.17
2019-01-16T21:33:22.694Z,99187.80
2019-01-16T21:36:26.560Z,99180.42
2019-01-16T21:39:15.172Z,99173.58
2019-01-16T21:41:56.850Z,99172.21
2019-01-16T21:44:54.308Z,99171.51
2019-01-16T21:47:41.764Z,99172.28
2019-01-16T21:50:36.669Z,99161.88
2019-01-16T21:53:20.514Z,99168.48
2019-01-16T21:56:18.150Z,99163.95
2019-01-16T21:59:02.495Z,99157.30
2019-01-16T22:01:50.224Z,99152.84
2019-01-16T22:04:34.803Z,99149.87
2019-01-16T22:07:26.294Z,99135.23
2019-01-16T22:10:08.637Z,99129.73
2019-01-16T22:13:09.152Z,99130.94
2019-01-16T22:15:57.015Z,99125.77
2019-01-16T22:18:50.497Z,99133.07
2019-01-16T22:21:46.214Z,99121.48
2019-01-16T22:24:37.849Z,99125.56
2019-01-16T22:27:29.474Z,99112.48
2019-01-16T22:30:26.926Z,99104.16
2019-01-16T22:33:21.420Z,99103.96
2019-01-16T22:36:08.594Z,99089.97
2019-01-16T22:39:00.151Z,99087.64
2019-01-16T22:41:36.620Z,99104.23
2019-01-16T22:44:24.536Z,99094.21
2019-01-16T22:47:11.795Z,99103.89
2019-01-16T22:49:59.281Z,99097.70
2019-01-16T22:52:48.624Z,99097.59
2019-01-16T22:55:26.851Z,99096.63
2019-01-16T22:58:06.973Z,99100.95
2019-01-16T23:00:57.326Z,99102.77
2019-01-16T23:03:41.294Z,99098.95
2019-01-16T23:06:28.114Z,99089.49
2019-01-16T23:09:24.833Z,99093.77
2019-01-16T23:12:12.149Z,99089.55
2019-01-16T23:14:49.101Z,99081.69
2019-01-16T23:17:36.570Z,99071.37
2019-01-16T23:20:24.565Z,99061.77
2019-01-16T23:23:28.363Z,99058.34
2019-01-16T23:26:29.101Z,99055.09
2019-01-16T23:29:06.502Z,99043.45
2019-01-16T23:32:01.817Z,99042.08
2019-01-16T23:34:48.871Z,99051.25
2019-01-16T23:37:36.144Z,99038.25
2019-01-16T23:40:12.969Z,99044.98
2019-01-16T23:42:52.462Z,99048.39
2019-01-16T23:45:31.851Z,99051.65
2019-01-16T23:48:20.387Z,99056.60
2019-01-16T23:51:18.758Z,99054.48
2019-01-16T23:54:06.761Z,99044.16
2019-01-16T23:57:10.531Z,99047.13
2019-01-16T23:59:57.532Z,99033.98
